sensor_id;sensor_type;location;lat;lon;timestamp;temperature;humidity
19389;DHT22;9830;41.876;23.474;2023-06-26T00:00:34;15.30;99.90
19389;DHT22;9830;41.876;23.474;2023-06-26T00:03:00;15.30;99.90
19389;DHT22;9830;41.876;23.474;2023-06-26T00:05:25;15.30;99.90
19389;DHT22;9830;41.876;23.474;2023-06-26T00:07:53;15.30;99.90
19389;DHT22;9830;41.876;23.474;2023-06-26T00:10:19;15.30;99.90
19389;DHT22;9830;41.876;23.474;2023-06-26T00:12:44;15.30;99.90
19389;DHT22;9830;41.876;23.474;2023-06-26T00:15:10;15.30;99.90
19389;DHT22;9830;41.876;23.474;2023-06-26T00:17:36;15.40;99.90
19389;DHT22;9830;41.876;23.474;2023-06-26T00:20:03;15.30;99.90
19389;DHT22;9830;41.876;23.474;2023-06-26T00:22:30;15.40;99.90
19389;DHT22;9830;41.876;23.474;2023-06-26T00:24:56;15.40;99.90
19389;DHT22;9830;41.876;23.474;2023-06-26T00:27:22;15.30;99.90
19389;DHT22;9830;41.876;23.474;2023-06-26T00:29:47;15.30;99.90
19389;DHT22;9830;41.876;23.474;2023-06-26T00:32:13;15.30;99.90
19389;DHT22;9830;41.876;23.474;2023-06-26T00:34:39;15.40;99.90
19389;DHT22;9830;41.876;23.474;2023-06-26T00:37:04;15.40;99.90
19389;DHT22;9830;41.876;23.474;2023-06-26T00:39:30;15.30;99.90
19389;DHT22;9830;41.876;23.474;2023-06-26T00:41:56;15.30;99.90
19389;DHT22;9830;41.876;23.474;2023-06-26T00:44:21;15.20;99.90
19389;DHT22;9830;41.876;23.474;2023-06-26T00:46:47;15.20;99.90
19389;DHT22;9830;41.876;23.474;2023-06-26T00:49:13;15.30;99.90
19389;DHT22;9830;41.876;23.474;2023-06-26T00:51:40;15.40;99.90
19389;DHT22;9830;41.876;23.474;2023-06-26T00:54:06;15.50;99.90
19389;DHT22;9830;41.876;23.474;2023-06-26T00:56:32;15.50;99.90
19389;DHT22;9830;41.876;23.474;2023-06-26T00:58:58;15.60;99.90
19389;DHT22;9830;41.876;23.474;2023-06-26T01:01:24;15.60;99.90
19389;DHT22;9830;41.876;23.474;2023-06-26T01:03:52;15.60;99.90
19389;DHT22;9830;41.876;23.474;2023-06-26T01:06:20;15.60;99.90
19389;DHT22;9830;41.876;23.474;2023-06-26T01:08:47;15.80;99.90
19389;DHT22;9830;41.876;23.474;2023-06-26T01:11:14;15.80;99.90
19389;DHT22;9830;41.876;23.474;2023-06-26T01:13:42;15.70;99.90
19389;DHT22;9830;41.876;23.474;2023-06-26T01:16:10;15.70;99.90
19389;DHT22;9830;41.876;23.474;2023-06-26T01:18:37;15.70;99.90
19389;DHT22;9830;41.876;23.474;2023-06-26T01:21:07;15.60;99.90
19389;DHT22;9830;41.876;23.474;2023-06-26T01:24:07;15.60;99.90
19389;DHT22;9830;41.876;23.474;2023-06-26T01:26:36;15.50;99.90
19389;DHT22;9830;41.876;23.474;2023-06-26T01:29:04;15.40;99.90
19389;DHT22;9830;41.876;23.474;2023-06-26T01:31:31;15.40;99.90
19389;DHT22;9830;41.876;23.474;2023-06-26T01:33:58;15.40;99.90
19389;DHT22;9830;41.876;23.474;2023-06-26T01:36:25;15.40;99.90
19389;DHT22;9830;41.876;23.474;2023-06-26T01:38:51;15.50;99.90
19389;DHT22;9830;41.876;23.474;2023-06-26T01:41:18;15.50;99.90
19389;DHT22;9830;41.876;23.474;2023-06-26T01:43:58;15.50;99.90
19389;DHT22;9830;41.876;23.474;2023-06-26T01:46:36;15.50;99.90
19389;DHT22;9830;41.876;23.474;2023-06-26T01:49:09;15.50;99.90
19389;DHT22;9830;41.876;23.474;2023-06-26T01:51:44;15.60;99.90
19389;DHT22;9830;41.876;23.474;2023-06-26T01:54:15;15.60;99.90
19389;DHT22;9830;41.876;23.474;2023-06-26T01:56:43;15.40;99.90
19389;DHT22;9830;41.876;23.474;2023-06-26T01:59:12;15.50;99.90
19389;DHT22;9830;41.876;23.474;2023-06-26T02:01:39;15.50;99.90
19389;DHT22;9830;41.876;23.474;2023-06-26T02:04:05;15.50;99.90
19389;DHT22;9830;41.876;23.474;2023-06-26T02:06:31;15.50;99.90
19389;DHT22;9830;41.876;23.474;2023-06-26T02:08:56;15.40;99.90
19389;DHT22;9830;41.876;23.474;2023-06-26T02:11:23;15.50;99.90
19389;DHT22;9830;41.876;23.474;2023-06-26T02:13:48;15.50;99.90
19389;DHT22;9830;41.876;23.474;2023-06-26T02:16:14;15.50;99.90
19389;DHT22;9830;41.876;23.474;2023-06-26T02:18:39;15.60;99.90
19389;DHT22;9830;41.876;23.474;2023-06-26T02:21:06;15.70;99.90
19389;DHT22;9830;41.876;23.474;2023-06-26T02:23:32;15.60;99.90
19389;DHT22;9830;41.876;23.474;2023-06-26T02:25:58;15.60;99.90
19389;DHT22;9830;41.876;23.474;2023-06-26T02:28:24;15.50;99.90
19389;DHT22;9830;41.876;23.474;2023-06-26T02:30:49;15.50;99.90
19389;DHT22;9830;41.876;23.474;2023-06-26T02:33:15;15.40;99.90
19389;DHT22;9830;41.876;23.474;2023-06-26T02:35:40;15.40;99.90
19389;DHT22;9830;41.876;23.474;2023-06-26T02:38:06;15.40;99.90
19389;DHT22;9830;41.876;23.474;2023-06-26T02:40:32;15.40;99.90
19389;DHT22;9830;41.876;23.474;2023-06-26T02:42:58;15.40;99.90
19389;DHT22;9830;41.876;23.474;2023-06-26T02:45:24;15.50;99.90
19389;DHT22;9830;41.876;23.474;2023-06-26T02:47:50;15.60;99.90
19389;DHT22;9830;41.876;23.474;2023-06-26T02:50:15;15.50;99.90
19389;DHT22;9830;41.876;23.474;2023-06-26T02:52:41;15.40;99.90
19389;DHT22;9830;41.876;23.474;2023-06-26T02:55:07;15.40;99.90
19389;DHT22;9830;41.876;23.474;2023-06-26T02:57:32;15.40;99.90
19389;DHT22;9830;41.876;23.474;2023-06-26T02:59:58;15.40;99.90
19389;DHT22;9830;41.876;23.474;2023-06-26T03:02:24;15.50;99.90
19389;DHT22;9830;41.876;23.474;2023-06-26T03:04:49;15.50;99.90
19389;DHT22;9830;41.876;23.474;2023-06-26T03:07:15;15.60;99.90
19389;DHT22;9830;41.876;23.474;2023-06-26T03:09:41;15.60;99.90
19389;DHT22;9830;41.876;23.474;2023-06-26T03:12:07;15.70;99.90
19389;DHT22;9830;41.876;23.474;2023-06-26T03:14:33;15.60;99.90
19389;DHT22;9830;41.876;23.474;2023-06-26T03:16:59;15.70;99.90
19389;DHT22;9830;41.876;23.474;2023-06-26T03:19:28;15.90;99.90
19389;DHT22;9830;41.876;23.474;2023-06-26T03:21:54;15.90;99.90
19389;DHT22;9830;41.876;23.474;2023-06-26T03:24:20;15.80;99.90
19389;DHT22;9830;41.876;23.474;2023-06-26T03:26:46;15.70;99.90
19389;DHT22;9830;41.876;23.474;2023-06-26T03:29:12;15.60;99.90
19389;DHT22;9830;41.876;23.474;2023-06-26T03:31:38;15.50;99.90
19389;DHT22;9830;41.876;23.474;2023-06-26T03:34:03;15.40;99.90
19389;DHT22;9830;41.876;23.474;2023-06-26T03:36:29;15.40;99.90
19389;DHT22;9830;41.876;23.474;2023-06-26T03:38:54;15.40;99.90
19389;DHT22;9830;41.876;23.474;2023-06-26T03:41:23;15.40;99.90
19389;DHT22;9830;41.876;23.474;2023-06-26T03:43:49;15.50;99.90
19389;DHT22;9830;41.876;23.474;2023-06-26T03:46:14;15.50;99.90
19389;DHT22;9830;41.876;23.474;2023-06-26T03:48:40;15.70;99.90
19389;DHT22;9830;41.876;23.474;2023-06-26T03:51:06;15.80;99.90
19389;DHT22;9830;41.876;23.474;2023-06-26T03:53:33;15.90;99.90
19389;DHT22;9830;41.876;23.474;2023-06-26T03:55:59;16.00;99.90
19389;DHT22;9830;41.876;23.474;2023-06-26T03:58:24;16.30;99.90
19389;DHT22;9830;41.876;23.474;2023-06-26T04:00:50;16.50;99.90
19389;DHT22;9830;41.876;23.474;2023-06-26T04:03:16;16.70;99.90
19389;DHT22;9830;41.876;23.474;2023-06-26T04:05:42;16.70;99.90
19389;DHT22;9830;41.876;23.474;2023-06-26T04:08:08;16.70;99.90
19389;DHT22;9830;41.876;23.474;2023-06-26T04:10:34;16.80;99.90
19389;DHT22;9830;41.876;23.474;2023-06-26T04:13:01;16.80;99.90
19389;DHT22;9830;41.876;23.474;2023-06-26T04:15:27;16.80;99.90
19389;DHT22;9830;41.876;23.474;2023-06-26T04:17:52;16.90;99.90
19389;DHT22;9830;41.876;23.474;2023-06-26T04:20:18;17.20;99.90
19389;DHT22;9830;41.876;23.474;2023-06-26T04:22:44;17.30;99.90
19389;DHT22;9830;41.876;23.474;2023-06-26T04:25:09;17.30;99.90
19389;DHT22;9830;41.876;23.474;2023-06-26T04:27:37;17.30;99.90
19389;DHT22;9830;41.876;23.474;2023-06-26T04:30:03;17.40;99.90
19389;DHT22;9830;41.876;23.474;2023-06-26T04:32:30;17.70;99.90
19389;DHT22;9830;41.876;23.474;2023-06-26T04:34:56;18.20;99.90
19389;DHT22;9830;41.876;23.474;2023-06-26T04:37:22;18.40;99.90
19389;DHT22;9830;41.876;23.474;2023-06-26T04:39:47;18.50;99.90
19389;DHT22;9830;41.876;23.474;2023-06-26T04:42:13;18.40;99.90
19389;DHT22;9830;41.876;23.474;2023-06-26T04:44:39;18.60;99.90
19389;DHT22;9830;41.876;23.474;2023-06-26T04:47:07;18.80;99.90
19389;DHT22;9830;41.876;23.474;2023-06-26T04:49:33;19.60;99.90
19389;DHT22;9830;41.876;23.474;2023-06-26T04:51:59;21.20;99.90
19389;DHT22;9830;41.876;23.474;2023-06-26T04:54:25;22.60;99.90
19389;DHT22;9830;41.876;23.474;2023-06-26T04:56:51;24.10;99.90
19389;DHT22;9830;41.876;23.474;2023-06-26T04:59:17;24.90;99.90
19389;DHT22;9830;41.876;23.474;2023-06-26T05:01:43;25.00;99.90
19389;DHT22;9830;41.876;23.474;2023-06-26T05:04:14;25.30;99.90
19389;DHT22;9830;41.876;23.474;2023-06-26T05:06:41;24.90;99.90
19389;DHT22;9830;41.876;23.474;2023-06-26T05:09:07;24.40;99.90
19389;DHT22;9830;41.876;23.474;2023-06-26T05:11:32;23.80;99.90
19389;DHT22;9830;41.876;23.474;2023-06-26T05:13:58;22.90;99.90
19389;DHT22;9830;41.876;23.474;2023-06-26T05:16:24;22.10;99.90
19389;DHT22;9830;41.876;23.474;2023-06-26T05:18:49;22.00;99.90
19389;DHT22;9830;41.876;23.474;2023-06-26T05:21:16;22.70;99.90
19389;DHT22;9830;41.876;23.474;2023-06-26T05:23:42;23.70;99.90
19389;DHT22;9830;41.876;23.474;2023-06-26T05:26:10;25.00;99.90
19389;DHT22;9830;41.876;23.474;2023-06-26T05:28:37;26.80;99.90
19389;DHT22;9830;41.876;23.474;2023-06-26T05:31:03;28.00;99.90
19389;DHT22;9830;41.876;23.474;2023-06-26T05:33:30;28.30;98.00
19389;DHT22;9830;41.876;23.474;2023-06-26T05:35:56;28.90;96.80
19389;DHT22;9830;41.876;23.474;2023-06-26T05:38:24;29.60;94.90
19389;DHT22;9830;41.876;23.474;2023-06-26T05:40:50;29.80;92.00
19389;DHT22;9830;41.876;23.474;2023-06-26T05:43:16;29.20;92.90
19389;DHT22;9830;41.876;23.474;2023-06-26T05:45:46;30.00;90.80
19389;DHT22;9830;41.876;23.474;2023-06-26T05:48:12;29.30;92.60
19389;DHT22;9830;41.876;23.474;2023-06-26T05:50:38;28.90;92.50
19389;DHT22;9830;41.876;23.474;2023-06-26T05:53:06;29.30;91.40
19389;DHT22;9830;41.876;23.474;2023-06-26T05:55:32;29.30;91.10
19389;DHT22;9830;41.876;23.474;2023-06-26T05:57:58;29.60;89.50
19389;DHT22;9830;41.876;23.474;2023-06-26T06:00:26;29.90;85.20
19389;DHT22;9830;41.876;23.474;2023-06-26T06:02:52;30.60;80.10
19389;DHT22;9830;41.876;23.474;2023-06-26T06:05:20;31.80;74.70
19389;DHT22;9830;41.876;23.474;2023-06-26T06:07:46;32.00;70.70
19389;DHT22;9830;41.876;23.474;2023-06-26T06:10:12;31.10;75.00
19389;DHT22;9830;41.876;23.474;2023-06-26T06:12:37;30.70;78.70
19389;DHT22;9830;41.876;23.474;2023-06-26T06:15:04;30.50;77.10
19389;DHT22;9830;41.876;23.474;2023-06-26T06:17:30;31.00;74.50
19389;DHT22;9830;41.876;23.474;2023-06-26T06:19:56;30.90;74.70
19389;DHT22;9830;41.876;23.474;2023-06-26T06:22:21;30.40;76.30
19389;DHT22;9830;41.876;23.474;2023-06-26T06:24:49;29.40;80.40
19389;DHT22;9830;41.876;23.474;2023-06-26T06:27:15;30.90;74.70
19389;DHT22;9830;41.876;23.474;2023-06-26T06:29:41;31.40;69.90
19389;DHT22;9830;41.876;23.474;2023-06-26T06:32:07;32.30;60.00
19389;DHT22;9830;41.876;23.474;2023-06-26T06:34:33;33.00;57.40
19389;DHT22;9830;41.876;23.474;2023-06-26T06:36:58;33.40;53.60
19389;DHT22;9830;41.876;23.474;2023-06-26T06:39:24;33.20;50.60
19389;DHT22;9830;41.876;23.474;2023-06-26T06:41:50;34.80;47.70
19389;DHT22;9830;41.876;23.474;2023-06-26T06:44:16;34.60;46.90
19389;DHT22;9830;41.876;23.474;2023-06-26T06:46:41;34.60;48.20
19389;DHT22;9830;41.876;23.474;2023-06-26T06:49:08;33.70;49.00
19389;DHT22;9830;41.876;23.474;2023-06-26T06:51:34;34.10;51.20
19389;DHT22;9830;41.876;23.474;2023-06-26T06:53:59;35.40;48.10
19389;DHT22;9830;41.876;23.474;2023-06-26T06:56:25;35.30;47.40
19389;DHT22;9830;41.876;23.474;2023-06-26T06:58:51;33.80;49.00
19389;DHT22;9830;41.876;23.474;2023-06-26T07:01:17;34.40;50.00
19389;DHT22;9830;41.876;23.474;2023-06-26T07:03:42;34.40;48.50
19389;DHT22;9830;41.876;23.474;2023-06-26T07:06:08;33.90;50.50
19389;DHT22;9830;41.876;23.474;2023-06-26T07:08:34;34.30;50.40
19389;DHT22;9830;41.876;23.474;2023-06-26T07:10:59;35.00;48.90
19389;DHT22;9830;41.876;23.474;2023-06-26T07:13:25;34.60;47.80
19389;DHT22;9830;41.876;23.474;2023-06-26T07:15:51;34.90;48.70
19389;DHT22;9830;41.876;23.474;2023-06-26T07:18:17;34.70;48.60
19389;DHT22;9830;41.876;23.474;2023-06-26T07:20:43;35.00;47.60
19389;DHT22;9830;41.876;23.474;2023-06-26T07:23:09;35.30;47.00
19389;DHT22;9830;41.876;23.474;2023-06-26T07:25:35;35.40;46.00
19389;DHT22;9830;41.876;23.474;2023-06-26T07:28:00;35.30;46.90
19389;DHT22;9830;41.876;23.474;2023-06-26T07:30:26;35.20;46.00
19389;DHT22;9830;41.876;23.474;2023-06-26T07:32:52;35.60;46.20
19389;DHT22;9830;41.876;23.474;2023-06-26T07:35:18;35.30;45.80
19389;DHT22;9830;41.876;23.474;2023-06-26T07:37:43;35.00;46.30
19389;DHT22;9830;41.876;23.474;2023-06-26T07:40:10;35.30;46.80
19389;DHT22;9830;41.876;23.474;2023-06-26T07:42:36;34.90;47.00
19389;DHT22;9830;41.876;23.474;2023-06-26T07:45:02;35.40;46.60
19389;DHT22;9830;41.876;23.474;2023-06-26T07:47:30;35.30;45.70
19389;DHT22;9830;41.876;23.474;2023-06-26T07:49:56;35.00;46.50
19389;DHT22;9830;41.876;23.474;2023-06-26T07:52:21;34.70;47.50
19389;DHT22;9830;41.876;23.474;2023-06-26T07:54:47;34.80;48.40
19389;DHT22;9830;41.876;23.474;2023-06-26T07:57:13;34.90;46.40
19389;DHT22;9830;41.876;23.474;2023-06-26T07:59:38;35.10;46.30
19389;DHT22;9830;41.876;23.474;2023-06-26T08:02:04;35.30;45.50
19389;DHT22;9830;41.876;23.474;2023-06-26T08:04:31;35.30;45.60
19389;DHT22;9830;41.876;23.474;2023-06-26T08:06:58;35.10;45.50
19389;DHT22;9830;41.876;23.474;2023-06-26T08:09:28;35.90;45.40
19389;DHT22;9830;41.876;23.474;2023-06-26T08:11:54;35.90;43.80
19389;DHT22;9830;41.876;23.474;2023-06-26T08:14:20;35.80;42.90
19389;DHT22;9830;41.876;23.474;2023-06-26T08:16:47;35.30;45.40
19389;DHT22;9830;41.876;23.474;2023-06-26T08:19:14;35.50;45.20
19389;DHT22;9830;41.876;23.474;2023-06-26T08:21:41;35.90;45.00
19389;DHT22;9830;41.876;23.474;2023-06-26T08:24:06;36.80;41.60
19389;DHT22;9830;41.876;23.474;2023-06-26T08:26:32;37.40;42.70
19389;DHT22;9830;41.876;23.474;2023-06-26T08:28:58;37.30;40.30
19389;DHT22;9830;41.876;23.474;2023-06-26T08:31:24;37.70;41.30
19389;DHT22;9830;41.876;23.474;2023-06-26T08:33:49;36.90;42.20
19389;DHT22;9830;41.876;23.474;2023-06-26T08:36:15;37.00;42.40
19389;DHT22;9830;41.876;23.474;2023-06-26T08:38:41;36.90;42.40
19389;DHT22;9830;41.876;23.474;2023-06-26T08:41:07;37.10;41.70
19389;DHT22;9830;41.876;23.474;2023-06-26T08:43:33;37.20;42.40
19389;DHT22;9830;41.876;23.474;2023-06-26T08:45:59;37.00;41.80
19389;DHT22;9830;41.876;23.474;2023-06-26T08:48:25;36.80;42.40
19389;DHT22;9830;41.876;23.474;2023-06-26T08:50:53;37.10;42.80
19389;DHT22;9830;41.876;23.474;2023-06-26T08:56:07;36.30;41.90
19389;DHT22;9830;41.876;23.474;2023-06-26T08:58:35;36.50;43.90
19389;DHT22;9830;41.876;23.474;2023-06-26T09:01:04;36.60;40.90
19389;DHT22;9830;41.876;23.474;2023-06-26T09:03:30;36.50;41.70
19389;DHT22;9830;41.876;23.474;2023-06-26T09:05:56;37.20;41.60
19389;DHT22;9830;41.876;23.474;2023-06-26T09:08:21;37.80;39.20
19389;DHT22;9830;41.876;23.474;2023-06-26T09:10:47;37.50;39.80
19389;DHT22;9830;41.876;23.474;2023-06-26T09:13:13;37.90;39.60
19389;DHT22;9830;41.876;23.474;2023-06-26T09:15:42;37.90;38.90
19389;DHT22;9830;41.876;23.474;2023-06-26T09:18:08;37.90;40.10
19389;DHT22;9830;41.876;23.474;2023-06-26T09:20:34;37.40;41.30
19389;DHT22;9830;41.876;23.474;2023-06-26T09:23:00;38.10;39.30
19389;DHT22;9830;41.876;23.474;2023-06-26T09:25:27;37.70;39.00
19389;DHT22;9830;41.876;23.474;2023-06-26T09:27:54;37.30;41.20
19389;DHT22;9830;41.876;23.474;2023-06-26T09:30:20;36.40;42.40
19389;DHT22;9830;41.876;23.474;2023-06-26T09:32:46;37.00;40.30
19389;DHT22;9830;41.876;23.474;2023-06-26T09:35:12;35.60;42.10
19389;DHT22;9830;41.876;23.474;2023-06-26T09:37:38;34.20;45.80
19389;DHT22;9830;41.876;23.474;2023-06-26T09:40:04;32.40;49.20
19389;DHT22;9830;41.876;23.474;2023-06-26T09:42:30;31.80;54.40
19389;DHT22;9830;41.876;23.474;2023-06-26T09:44:56;30.80;60.00
19389;DHT22;9830;41.876;23.474;2023-06-26T09:47:24;30.20;88.50
19389;DHT22;9830;41.876;23.474;2023-06-26T09:49:50;28.80;93.40
19389;DHT22;9830;41.876;23.474;2023-06-26T09:52:18;27.60;99.90
19389;DHT22;9830;41.876;23.474;2023-06-26T09:54:45;26.80;99.90
19389;DHT22;9830;41.876;23.474;2023-06-26T09:57:18;26.70;99.90
19389;DHT22;9830;41.876;23.474;2023-06-26T09:59:44;26.90;99.90
19389;DHT22;9830;41.876;23.474;2023-06-26T10:02:13;26.40;93.30
19389;DHT22;9830;41.876;23.474;2023-06-26T10:04:39;26.50;99.90
19389;DHT22;9830;41.876;23.474;2023-06-26T10:07:06;26.10;99.70
19389;DHT22;9830;41.876;23.474;2023-06-26T10:09:37;25.70;96.10
19389;DHT22;9830;41.876;23.474;2023-06-26T10:12:28;25.40;99.90
19389;DHT22;9830;41.876;23.474;2023-06-26T10:14:53;24.70;99.90
19389;DHT22;9830;41.876;23.474;2023-06-26T10:17:21;24.30;99.90
19389;DHT22;9830;41.876;23.474;2023-06-26T10:19:48;23.80;99.90
19389;DHT22;9830;41.876;23.474;2023-06-26T10:22:20;23.80;99.90
19389;DHT22;9830;41.876;23.474;2023-06-26T10:24:48;23.20;99.90
19389;DHT22;9830;41.876;23.474;2023-06-26T10:27:20;22.20;99.90
19389;DHT22;9830;41.876;23.474;2023-06-26T10:29:49;21.90;99.90
19389;DHT22;9830;41.876;23.474;2023-06-26T10:32:17;22.10;99.90
19389;DHT22;9830;41.876;23.474;2023-06-26T10:34:44;22.50;99.90
19389;DHT22;9830;41.876;23.474;2023-06-26T10:37:12;23.10;99.90
19389;DHT22;9830;41.876;23.474;2023-06-26T10:39:51;23.90;99.90
19389;DHT22;9830;41.876;23.474;2023-06-26T10:42:19;24.60;99.90
19389;DHT22;9830;41.876;23.474;2023-06-26T10:44:47;25.40;99.90
19389;DHT22;9830;41.876;23.474;2023-06-26T10:47:45;25.30;99.90
19389;DHT22;9830;41.876;23.474;2023-06-26T10:50:24;25.60;99.90
19389;DHT22;9830;41.876;23.474;2023-06-26T10:56:03;27.70;92.20
19389;DHT22;9830;41.876;23.474;2023-06-26T10:58:33;28.70;83.20
19389;DHT22;9830;41.876;23.474;2023-06-26T11:03:48;30.80;74.70
19389;DHT22;9830;41.876;23.474;2023-06-26T11:06:18;30.70;58.00
19389;DHT22;9830;41.876;23.474;2023-06-26T11:14:19;29.90;63.10
19389;DHT22;9830;41.876;23.474;2023-06-26T11:16:45;29.60;68.80
19389;DHT22;9830;41.876;23.474;2023-06-26T11:19:11;29.30;65.70
19389;DHT22;9830;41.876;23.474;2023-06-26T11:21:38;29.00;75.60
19389;DHT22;9830;41.876;23.474;2023-06-26T11:24:05;28.90;80.30
19389;DHT22;9830;41.876;23.474;2023-06-26T11:26:38;28.80;78.40
19389;DHT22;9830;41.876;23.474;2023-06-26T11:29:04;28.20;88.50
19389;DHT22;9830;41.876;23.474;2023-06-26T11:31:31;28.40;75.40
19389;DHT22;9830;41.876;23.474;2023-06-26T11:34:02;29.20;74.30
19389;DHT22;9830;41.876;23.474;2023-06-26T11:36:29;29.50;70.40
19389;DHT22;9830;41.876;23.474;2023-06-26T11:39:01;28.80;67.40
19389;DHT22;9830;41.876;23.474;2023-06-26T11:41:30;28.30;78.50
19389;DHT22;9830;41.876;23.474;2023-06-26T11:43:56;28.00;76.30
19389;DHT22;9830;41.876;23.474;2023-06-26T11:46:25;27.80;78.40
19389;DHT22;9830;41.876;23.474;2023-06-26T11:48:51;27.70;78.20
19389;DHT22;9830;41.876;23.474;2023-06-26T11:51:17;28.00;72.20
19389;DHT22;9830;41.876;23.474;2023-06-26T11:53:44;28.70;77.20
19389;DHT22;9830;41.876;23.474;2023-06-26T11:56:16;29.40;73.90
19389;DHT22;9830;41.876;23.474;2023-06-26T11:59:04;30.00;66.70
19389;DHT22;9830;41.876;23.474;2023-06-26T12:01:36;30.00;66.30
19389;DHT22;9830;41.876;23.474;2023-06-26T12:04:04;30.40;63.20
19389;DHT22;9830;41.876;23.474;2023-06-26T12:06:34;30.70;58.10
19389;DHT22;9830;41.876;23.474;2023-06-26T12:09:02;30.10;58.00
19389;DHT22;9830;41.876;23.474;2023-06-26T12:11:31;29.30;63.20
19389;DHT22;9830;41.876;23.474;2023-06-26T12:13:58;29.60;64.20
19389;DHT22;9830;41.876;23.474;2023-06-26T12:16:24;30.10;57.60
19389;DHT22;9830;41.876;23.474;2023-06-26T12:18:51;29.90;56.00
19389;DHT22;9830;41.876;23.474;2023-06-26T12:24:08;29.80;57.20
19389;DHT22;9830;41.876;23.474;2023-06-26T12:26:35;29.20;58.30
19389;DHT22;9830;41.876;23.474;2023-06-26T12:29:06;28.60;64.70
19389;DHT22;9830;41.876;23.474;2023-06-26T12:31:32;28.20;61.60
19389;DHT22;9830;41.876;23.474;2023-06-26T12:33:59;28.40;60.80
19389;DHT22;9830;41.876;23.474;2023-06-26T12:36:25;28.80;56.50
19389;DHT22;9830;41.876;23.474;2023-06-26T12:38:53;28.90;56.40
19389;DHT22;9830;41.876;23.474;2023-06-26T12:41:19;28.80;60.20
19389;DHT22;9830;41.876;23.474;2023-06-26T12:43:46;28.50;65.70
19389;DHT22;9830;41.876;23.474;2023-06-26T12:46:12;29.00;70.90
19389;DHT22;9830;41.876;23.474;2023-06-26T12:48:42;29.10;63.80
19389;DHT22;9830;41.876;23.474;2023-06-26T12:51:16;28.50;61.90
19389;DHT22;9830;41.876;23.474;2023-06-26T12:53:42;27.90;66.20
19389;DHT22;9830;41.876;23.474;2023-06-26T12:56:09;27.70;70.30
19389;DHT22;9830;41.876;23.474;2023-06-26T12:58:36;28.00;68.00
19389;DHT22;9830;41.876;23.474;2023-06-26T13:01:06;28.20;69.10
19389;DHT22;9830;41.876;23.474;2023-06-26T13:03:50;28.50;74.20
19389;DHT22;9830;41.876;23.474;2023-06-26T13:06:19;28.70;65.10
19389;DHT22;9830;41.876;23.474;2023-06-26T13:08:45;28.90;64.70
19389;DHT22;9830;41.876;23.474;2023-06-26T13:11:10;29.20;65.00
19389;DHT22;9830;41.876;23.474;2023-06-26T13:13:36;29.20;64.10
19389;DHT22;9830;41.876;23.474;2023-06-26T13:16:02;29.00;63.20
19389;DHT22;9830;41.876;23.474;2023-06-26T13:18:27;28.80;65.40
19389;DHT22;9830;41.876;23.474;2023-06-26T13:20:53;28.70;67.90
19389;DHT22;9830;41.876;23.474;2023-06-26T13:23:19;28.60;68.10
19389;DHT22;9830;41.876;23.474;2023-06-26T13:25:45;28.60;68.90
19389;DHT22;9830;41.876;23.474;2023-06-26T13:28:11;28.80;68.50
19389;DHT22;9830;41.876;23.474;2023-06-26T13:30:37;28.80;70.40
19389;DHT22;9830;41.876;23.474;2023-06-26T13:33:02;29.10;66.10
19389;DHT22;9830;41.876;23.474;2023-06-26T13:35:28;28.50;64.70
19389;DHT22;9830;41.876;23.474;2023-06-26T13:37:54;28.00;65.90
19389;DHT22;9830;41.876;23.474;2023-06-26T13:40:19;28.20;70.60
19389;DHT22;9830;41.876;23.474;2023-06-26T13:42:45;28.00;65.90
19389;DHT22;9830;41.876;23.474;2023-06-26T13:45:11;28.20;71.70
19389;DHT22;9830;41.876;23.474;2023-06-26T13:47:37;28.30;66.70
19389;DHT22;9830;41.876;23.474;2023-06-26T13:50:07;28.30;65.00
19389;DHT22;9830;41.876;23.474;2023-06-26T13:52:33;28.30;67.00
19389;DHT22;9830;41.876;23.474;2023-06-26T13:54:59;28.00;62.10
19389;DHT22;9830;41.876;23.474;2023-06-26T13:57:25;28.20;66.60
19389;DHT22;9830;41.876;23.474;2023-06-26T13:59:53;28.10;62.10
19389;DHT22;9830;41.876;23.474;2023-06-26T14:02:18;28.20;64.40
19389;DHT22;9830;41.876;23.474;2023-06-26T14:04:44;28.10;62.60
19389;DHT22;9830;41.876;23.474;2023-06-26T14:07:10;28.00;61.40
19389;DHT22;9830;41.876;23.474;2023-06-26T14:09:35;28.10;60.30
19389;DHT22;9830;41.876;23.474;2023-06-26T14:12:01;27.70;61.40
19389;DHT22;9830;41.876;23.474;2023-06-26T14:14:27;27.40;65.20
19389;DHT22;9830;41.876;23.474;2023-06-26T14:16:53;27.20;66.60
19389;DHT22;9830;41.876;23.474;2023-06-26T14:19:19;26.90;68.70
19389;DHT22;9830;41.876;23.474;2023-06-26T14:21:44;26.80;66.50
19389;DHT22;9830;41.876;23.474;2023-06-26T14:24:10;26.70;68.00
19389;DHT22;9830;41.876;23.474;2023-06-26T14:26:36;27.00;70.30
19389;DHT22;9830;41.876;23.474;2023-06-26T14:29:03;27.10;70.00
19389;DHT22;9830;41.876;23.474;2023-06-26T14:31:29;27.10;68.90
19389;DHT22;9830;41.876;23.474;2023-06-26T14:33:54;27.10;69.20
19389;DHT22;9830;41.876;23.474;2023-06-26T14:36:20;27.20;69.50
19389;DHT22;9830;41.876;23.474;2023-06-26T14:38:46;27.20;67.40
19389;DHT22;9830;41.876;23.474;2023-06-26T14:41:12;27.20;71.00
19389;DHT22;9830;41.876;23.474;2023-06-26T14:43:38;27.20;68.80
19389;DHT22;9830;41.876;23.474;2023-06-26T14:46:04;27.10;73.00
19389;DHT22;9830;41.876;23.474;2023-06-26T14:48:30;27.10;68.80
19389;DHT22;9830;41.876;23.474;2023-06-26T14:50:55;27.10;68.40
19389;DHT22;9830;41.876;23.474;2023-06-26T14:53:21;26.90;70.20
19389;DHT22;9830;41.876;23.474;2023-06-26T14:55:47;26.70;76.60
19389;DHT22;9830;41.876;23.474;2023-06-26T14:58:12;26.30;84.10
19389;DHT22;9830;41.876;23.474;2023-06-26T15:00:38;26.20;86.80
19389;DHT22;9830;41.876;23.474;2023-06-26T15:03:04;25.90;90.30
19389;DHT22;9830;41.876;23.474;2023-06-26T15:05:29;26.00;85.60
19389;DHT22;9830;41.876;23.474;2023-06-26T15:07:55;25.70;89.40
19389;DHT22;9830;41.876;23.474;2023-06-26T15:10:20;25.60;91.40
19389;DHT22;9830;41.876;23.474;2023-06-26T15:12:47;25.70;92.30
19389;DHT22;9830;41.876;23.474;2023-06-26T15:15:12;25.90;94.00
19389;DHT22;9830;41.876;23.474;2023-06-26T15:17:39;25.70;84.90
19389;DHT22;9830;41.876;23.474;2023-06-26T15:20:05;25.90;90.90
19389;DHT22;9830;41.876;23.474;2023-06-26T15:22:31;26.00;87.30
19389;DHT22;9830;41.876;23.474;2023-06-26T15:24:56;26.20;76.60
19389;DHT22;9830;41.876;23.474;2023-06-26T15:27:23;26.30;80.80
19389;DHT22;9830;41.876;23.474;2023-06-26T15:29:48;26.40;79.90
19389;DHT22;9830;41.876;23.474;2023-06-26T15:32:14;26.50;75.90
19389;DHT22;9830;41.876;23.474;2023-06-26T15:34:41;26.50;74.50
19389;DHT22;9830;41.876;23.474;2023-06-26T15:37:07;26.70;73.50
19389;DHT22;9830;41.876;23.474;2023-06-26T15:39:32;26.70;75.50
19389;DHT22;9830;41.876;23.474;2023-06-26T15:41:58;26.80;76.10
19389;DHT22;9830;41.876;23.474;2023-06-26T15:44:24;26.80;77.80